createdAt,value
2022-12-03T00:03:35.763Z,25.77
2022-12-03T00:08:37.860Z,23.75
2022-12-03T00:13:41.174Z,23.42
2022-12-03T00:18:43.112Z,23.17
2022-12-03T00:23:45.094Z,23.63
2022-12-03T00:28:48.397Z,22.20
2022-12-03T00:33:50.547Z,28.50
2022-12-03T00:38:52.522Z,26.02
2022-12-03T00:43:57.642Z,24.67
2022-12-03T00:48:59.676Z,24.65
2022-12-03T00:54:01.652Z,24.48
2022-12-03T00:59:04.971Z,23.77
2022-12-03T01:04:06.874Z,25.75
2022-12-03T01:09:08.828Z,23.13
2022-12-03T01:14:13.927Z,26.38
2022-12-03T01:19:17.121Z,23.95
2022-12-03T01:24:19.671Z,24.00
2022-12-03T01:29:23.164Z,27.63
2022-12-03T01:34:25.092Z,25.40
2022-12-03T01:39:27.164Z,24.10
2022-12-03T01:44:32.266Z,25.13
2022-12-03T01:49:40.096Z,18.90
2022-12-03T01:54:46.454Z,23.60
2022-12-03T01:59:50.729Z,20.75
2022-12-03T02:09:59.812Z,19.40
2022-12-03T02:15:04.566Z,14.63
2022-12-03T02:20:08.793Z,15.63
2022-12-03T02:30:20.429Z,11.88
2022-12-03T02:35:24.730Z,18.55
2022-12-03T02:45:36.211Z,18.13
2022-12-03T02:50:41.442Z,21.92
2022-12-03T02:55:45.308Z,21.85
2022-12-03T03:00:49.308Z,17.05
2022-12-03T03:05:51.674Z,25.20
2022-12-03T03:10:56.137Z,23.83
2022-12-03T03:15:58.738Z,19.50
2022-12-03T03:21:01.366Z,26.23
2022-12-03T03:26:07.086Z,28.00
2022-12-03T03:31:12.591Z,21.42
2022-12-03T03:36:15.354Z,19.60
2022-12-03T03:41:20.700Z,20.38
2022-12-03T03:46:23.043Z,22.98
2022-12-03T03:51:25.436Z,20.33
2022-12-03T03:56:28.901Z,21.98
2022-12-03T04:01:31.270Z,23.58
2022-12-03T04:06:33.193Z,23.70
2022-12-03T04:11:55.165Z,22.23
2022-12-03T04:16:57.102Z,21.55
2022-12-03T04:22:17.908Z,21.45
2022-12-03T04:27:59.699Z,17.98
2022-12-03T04:33:20.329Z,17.65
2022-12-03T04:38:37.322Z,23.20
2022-12-03T04:44:00.546Z,22.70
2022-12-03T04:54:04.357Z,19.42
2022-12-03T04:59:12.715Z,18.10
2022-12-03T05:04:17.843Z,21.17
2022-12-03T05:09:19.783Z,18.65
2022-12-03T05:14:23.197Z,20.73
2022-12-03T05:19:45.071Z,14.90
2022-12-03T05:24:46.987Z,22.98
2022-12-03T05:29:50.215Z,16.65
2022-12-03T05:34:52.641Z,18.55
2022-12-03T05:39:54.853Z,23.73
2022-12-03T05:44:58.092Z,23.35
2022-12-03T05:50:00.002Z,14.40
2022-12-03T05:55:02.141Z,15.30
2022-12-03T06:00:11.323Z,17.15
2022-12-03T06:05:15.354Z,11.57
2022-12-03T06:10:20.618Z,15.35
2022-12-03T06:15:23.960Z,12.70
2022-12-03T06:20:26.028Z,9.82
2022-12-03T06:25:27.935Z,9.48
2022-12-03T06:30:31.214Z,8.10
2022-12-03T06:35:33.186Z,12.80
2022-12-03T06:40:35.122Z,15.20
2022-12-03T06:45:42.034Z,14.85
2022-12-03T06:50:46.489Z,11.88
2022-12-03T06:55:48.401Z,9.10
2022-12-03T07:00:51.712Z,8.90
2022-12-03T07:05:53.621Z,10.45
2022-12-03T07:10:55.596Z,7.97
2022-12-03T07:15:58.876Z,9.30
2022-12-03T07:21:00.836Z,10.13
2022-12-03T07:26:02.770Z,7.55
2022-12-03T07:31:06.215Z,9.32
2022-12-03T07:36:09.141Z,6.07
2022-12-03T07:41:11.104Z,10.50
2022-12-03T07:46:14.439Z,6.95
2022-12-03T07:51:16.494Z,7.65
2022-12-03T07:56:18.446Z,10.27
2022-12-03T08:01:21.765Z,11.68
2022-12-03T08:06:23.762Z,11.07
2022-12-03T08:11:29.023Z,11.32
2022-12-03T08:16:40.341Z,22.48
2022-12-03T08:21:43.443Z,21.38
2022-12-03T08:26:47.178Z,25.17
2022-12-03T08:31:54.756Z,27.13
2022-12-03T08:37:19.309Z,33.45
2022-12-03T08:42:43.102Z,32.75
2022-12-03T08:47:46.692Z,32.30
2022-12-03T08:52:48.921Z,32.95
2022-12-03T08:57:51.139Z,32.60
2022-12-03T09:02:59.511Z,34.55
2022-12-03T09:08:01.698Z,23.55
2022-12-03T09:13:03.753Z,29.73
2022-12-03T09:18:08.049Z,25.30
2022-12-03T09:23:10.032Z,30.73
2022-12-03T09:28:11.965Z,35.03
2022-12-03T09:33:15.237Z,30.10
2022-12-03T09:38:17.188Z,26.70
2022-12-03T09:43:19.777Z,33.63
2022-12-03T09:48:23.279Z,33.17
2022-12-03T09:53:27.311Z,30.30
2022-12-03T09:58:34.504Z,30.88
2022-12-03T10:03:43.085Z,32.58
2022-12-03T10:08:48.512Z,28.02
2022-12-03T10:13:51.164Z,22.15
2022-12-03T10:18:57.082Z,33.00
2022-12-03T10:24:22.687Z,30.15
2022-12-03T10:29:32.946Z,31.48
2022-12-03T10:34:39.608Z,32.92
2022-12-03T10:39:59.756Z,29.25
2022-12-03T10:45:12.883Z,31.80
2022-12-03T10:50:20.148Z,34.67
2022-12-03T10:55:22.221Z,34.67
2022-12-03T11:00:24.344Z,31.00
2022-12-03T11:05:28.603Z,28.52
2022-12-03T11:10:30.885Z,32.83
2022-12-03T11:15:43.882Z,31.17
2022-12-03T11:21:09.320Z,34.28
2022-12-03T11:26:17.101Z,35.15
2022-12-03T11:31:43.415Z,36.65
2022-12-03T11:37:18.981Z,30.90
2022-12-03T11:47:44.040Z,35.40
2022-12-03T11:52:48.760Z,31.65
2022-12-03T11:57:57.385Z,33.45
2022-12-03T12:02:59.643Z,19.48
2022-12-03T12:08:02.848Z,42.85
2022-12-03T12:13:06.960Z,38.92
2022-12-03T12:18:40.079Z,27.10
2022-12-03T12:23:42.510Z,32.22
2022-12-03T12:28:46.063Z,44.67
2022-12-03T12:33:48.234Z,39.55
2022-12-03T12:38:50.337Z,39.33
2022-12-03T12:43:53.838Z,25.52
2022-12-03T12:48:59.674Z,20.70
2022-12-03T12:54:02.196Z,38.10
2022-12-03T12:59:11.582Z,31.95
2022-12-03T13:04:15.681Z,31.90
2022-12-03T13:09:21.131Z,35.53
2022-12-03T13:14:26.144Z,35.67
2022-12-03T13:19:30.239Z,34.13
2022-12-03T13:24:35.841Z,32.20
2022-12-03T13:29:39.590Z,40.17
2022-12-03T13:34:42.713Z,37.13
2022-12-03T13:39:49.654Z,27.77
2022-12-03T13:44:53.789Z,39.45
2022-12-03T13:49:59.865Z,35.97
2022-12-03T13:55:07.033Z,43.45
2022-12-03T14:00:11.693Z,40.78
2022-12-03T14:05:15.356Z,35.58
2022-12-03T14:10:17.582Z,44.60
2022-12-03T14:15:26.373Z,37.55
2022-12-03T14:20:28.313Z,44.53
2022-12-03T14:25:30.234Z,34.83
2022-12-03T14:30:34.905Z,37.45
2022-12-03T14:35:39.963Z,35.90
2022-12-03T14:40:43.679Z,31.20
2022-12-03T14:45:47.017Z,33.97
2022-12-03T14:50:49.014Z,34.28
2022-12-03T14:55:55.908Z,30.00
2022-12-03T15:00:59.234Z,26.67
2022-12-03T15:06:01.167Z,48.28
2022-12-03T15:11:03.548Z,44.30
2022-12-03T15:16:07.610Z,50.58
2022-12-03T15:26:13.927Z,45.67
2022-12-03T15:31:17.286Z,53.67
2022-12-03T15:36:22.117Z,46.67
2022-12-03T15:41:28.951Z,34.75
2022-12-03T15:46:32.472Z,35.85
2022-12-03T16:02:15.311Z,28.45
2022-12-03T16:07:17.936Z,14.30
2022-12-03T16:12:22.917Z,9.35
2022-12-03T16:17:36.885Z,7.97
2022-12-03T16:23:03.269Z,9.45
2022-12-03T16:28:24.632Z,9.35
2022-12-03T16:33:28.267Z,10.48
2022-12-03T16:38:56.665Z,8.45
2022-12-03T16:44:07.297Z,23.60
2022-12-03T16:49:13.701Z,17.83
2022-12-03T16:54:16.074Z,19.67
2022-12-03T16:59:18.167Z,23.23
2022-12-03T17:04:21.623Z,23.48
2022-12-03T17:09:23.662Z,37.75
2022-12-03T17:14:31.453Z,27.10
2022-12-03T17:19:36.545Z,26.88
2022-12-03T17:24:38.647Z,15.90
2022-12-03T17:29:40.667Z,10.60
2022-12-03T17:34:44.043Z,11.15
2022-12-03T17:39:46.026Z,13.82
2022-12-03T17:44:48.000Z,50.42
2022-12-03T17:49:51.511Z,29.15
2022-12-03T17:55:12.814Z,15.10
2022-12-03T18:00:16.069Z,13.63
2022-12-03T18:05:19.597Z,24.48
2022-12-03T18:10:22.583Z,13.68
2022-12-03T18:15:24.520Z,53.03
2022-12-03T18:20:28.007Z,77.53
2022-12-03T18:25:30.743Z,69.53
2022-12-03T18:30:32.734Z,70.90
2022-12-03T18:35:36.178Z,67.60
2022-12-03T18:40:38.530Z,67.57
2022-12-03T18:45:41.019Z,62.85
2022-12-03T18:50:44.960Z,66.32
2022-12-03T18:55:47.202Z,62.92
2022-12-03T19:00:49.178Z,85.28
2022-12-03T19:05:52.753Z,70.28
2022-12-03T19:10:56.727Z,88.03
2022-12-03T19:16:01.828Z,77.28
2022-12-03T19:21:07.988Z,63.03
2022-12-03T19:26:12.323Z,43.33
2022-12-03T19:31:16.636Z,53.50
2022-12-03T19:36:23.060Z,67.10
2022-12-03T19:41:27.414Z,74.90
2022-12-03T19:46:30.279Z,35.50
2022-12-03T19:51:35.360Z,36.45
2022-12-03T19:56:37.518Z,25.40
2022-12-03T20:01:40.808Z,62.08
2022-12-03T20:06:45.346Z,56.72
2022-12-03T20:11:51.153Z,51.45
2022-12-03T20:16:53.203Z,30.00
2022-12-03T20:22:02.353Z,43.72
2022-12-03T20:27:04.904Z,60.83
2022-12-03T20:32:07.119Z,45.92
2022-12-03T20:37:10.522Z,54.80
2022-12-03T20:42:12.432Z,42.78
2022-12-03T20:47:15.333Z,33.35
2022-12-03T20:52:18.613Z,29.48
2022-12-03T20:57:20.576Z,22.15
2022-12-03T21:02:22.655Z,19.10
2022-12-03T21:07:26.246Z,15.32
2022-12-03T21:12:30.901Z,19.73
2022-12-03T21:17:33.517Z,8.55
2022-12-03T21:22:36.980Z,7.90
2022-12-03T21:27:38.927Z,26.83
2022-12-03T21:32:40.878Z,31.48
2022-12-03T21:37:44.215Z,19.23
2022-12-03T21:42:46.382Z,35.70
2022-12-03T21:47:48.513Z,30.92
2022-12-03T21:52:52.704Z,24.08
2022-12-03T21:57:54.660Z,20.95
2022-12-03T22:02:56.656Z,30.88
2022-12-03T22:08:00.005Z,26.55
2022-12-03T22:13:02.259Z,32.15
2022-12-03T22:18:04.766Z,54.50
2022-12-03T22:23:08.127Z,67.57
2022-12-03T22:28:10.039Z,81.38
2022-12-03T22:33:12.001Z,86.88
2022-12-03T22:38:15.285Z,90.50
2022-12-03T22:43:17.363Z,83.22
2022-12-03T22:48:19.270Z,80.60
2022-12-03T22:53:22.556Z,84.45
2022-12-03T22:58:25.337Z,89.22
2022-12-03T23:03:27.293Z,84.70
2022-12-03T23:08:30.630Z,96.55
2022-12-03T23:13:32.647Z,81.88
2022-12-03T23:18:34.643Z,88.03
2022-12-03T23:23:38.069Z,77.10
2022-12-03T23:28:41.907Z,79.57
2022-12-03T23:33:43.990Z,79.18
2022-12-03T23:38:47.360Z,76.95
2022-12-03T23:43:49.596Z,76.72
2022-12-03T23:48:52.032Z,79.20
2022-12-03T23:53:56.429Z,81.50
2022-12-03T23:58:58.815Z,82.65
